createdAt,value
2018-11-26T00:01:08.346Z,59.93
2018-11-26T00:03:36.805Z,61.73
2018-11-26T00:06:05.094Z,55.93
2018-11-26T00:08:33.110Z,63.73
2018-11-26T00:11:44.887Z,56.63
2018-11-26T00:14:12.898Z,51.13
2018-11-26T00:16:40.980Z,58.90
2018-11-26T00:19:08.968Z,54.10
2018-11-26T00:21:36.990Z,54.17
2018-11-26T00:24:05.056Z,50.10
2018-11-26T00:26:33.102Z,57.90
2018-11-26T00:29:01.099Z,54.00
2018-11-26T00:31:29.129Z,58.70
2018-11-26T00:33:57.135Z,54.87
2018-11-26T00:36:25.129Z,50.53
2018-11-26T00:38:53.148Z,54.67
2018-11-26T00:41:21.141Z,52.93
2018-11-26T00:43:49.146Z,53.87
2018-11-26T00:46:17.189Z,56.23
2018-11-26T00:48:45.209Z,55.90
2018-11-26T00:51:13.217Z,58.80
2018-11-26T00:53:41.285Z,49.00
2018-11-26T00:56:09.285Z,53.27
2018-11-26T00:58:37.290Z,60.33
2018-11-26T01:01:05.658Z,58.23
2018-11-26T01:03:33.693Z,45.67
2018-11-26T01:06:01.696Z,59.60
2018-11-26T01:08:29.793Z,58.53
2018-11-26T01:10:57.801Z,58.33
2018-11-26T01:13:25.856Z,57.73
2018-11-26T01:15:53.930Z,57.50
2018-11-26T01:18:21.993Z,55.40
2018-11-26T01:20:50.098Z,50.90
2018-11-26T01:23:18.101Z,56.80
2018-11-26T01:25:46.266Z,56.40
2018-11-26T01:28:14.304Z,58.50
2018-11-26T01:30:42.319Z,61.07
2018-11-26T01:33:10.318Z,59.23
2018-11-26T01:35:38.318Z,63.80
2018-11-26T01:38:06.329Z,60.57
2018-11-26T01:40:39.838Z,56.97
2018-11-26T01:43:07.853Z,62.00
2018-11-26T01:45:36.073Z,56.20
2018-11-26T01:48:04.093Z,52.47
2018-11-26T01:50:32.090Z,63.30
2018-11-26T01:53:00.118Z,62.20
2018-11-26T01:55:28.121Z,56.47
2018-11-26T01:57:56.149Z,60.37
2018-11-26T02:00:25.458Z,52.00
2018-11-26T02:02:53.736Z,53.80
2018-11-26T02:05:21.768Z,55.03
2018-11-26T02:07:49.767Z,48.20
2018-11-26T02:10:19.051Z,55.57
2018-11-26T02:12:47.130Z,53.57
2018-11-26T02:15:26.625Z,58.23
2018-11-26T02:17:54.685Z,49.23
2018-11-26T02:20:22.829Z,48.87
2018-11-26T02:22:50.857Z,50.43
2018-11-26T02:25:18.870Z,49.90
2018-11-26T02:27:46.913Z,53.37
2018-11-26T02:30:14.985Z,47.00
2018-11-26T02:32:43.008Z,53.23
2018-11-26T02:35:11.046Z,46.80
2018-11-26T02:37:39.052Z,47.90
2018-11-26T02:40:09.396Z,40.90
2018-11-26T02:42:37.397Z,50.60
2018-11-26T02:45:06.014Z,48.33
2018-11-26T02:47:34.018Z,47.33
2018-11-26T02:50:02.146Z,49.57
2018-11-26T02:52:30.193Z,47.00
2018-11-26T02:54:58.314Z,42.33
2018-11-26T02:57:26.333Z,41.47
2018-11-26T02:59:54.341Z,35.90
2018-11-26T03:02:22.389Z,41.70
2018-11-26T03:04:50.449Z,41.33
2018-11-26T03:07:18.472Z,39.77
2018-11-26T03:09:46.516Z,35.60
2018-11-26T03:12:14.521Z,39.03
2018-11-26T03:14:42.538Z,38.70
2018-11-26T03:17:10.541Z,40.53
2018-11-26T03:19:38.686Z,34.83
2018-11-26T03:22:06.754Z,33.60
2018-11-26T03:24:34.821Z,35.53
2018-11-26T03:27:02.997Z,33.40
2018-11-26T03:29:31.070Z,37.43
2018-11-26T03:31:59.263Z,32.27
2018-11-26T03:34:27.273Z,33.60
2018-11-26T03:36:55.265Z,27.80
2018-11-26T03:39:23.305Z,30.23
2018-11-26T03:41:51.325Z,32.27
2018-11-26T03:44:19.313Z,36.50
2018-11-26T03:46:47.310Z,36.37
2018-11-26T03:49:15.322Z,33.00
2018-11-26T03:51:43.320Z,30.13
2018-11-26T03:54:11.330Z,30.10
2018-11-26T03:56:39.362Z,28.00
2018-11-26T03:59:07.388Z,25.60
2018-11-26T04:01:35.458Z,21.93
2018-11-26T04:04:03.513Z,29.33
2018-11-26T04:06:31.607Z,34.07
2018-11-26T04:08:59.610Z,26.50
2018-11-26T04:11:27.636Z,21.13
2018-11-26T04:13:55.709Z,25.97
2018-11-26T04:16:23.792Z,27.90
2018-11-26T04:18:51.791Z,27.93
2018-11-26T04:21:19.853Z,30.37
2018-11-26T04:23:47.882Z,27.73
2018-11-26T04:26:15.946Z,21.87
2018-11-26T04:28:43.965Z,24.20
2018-11-26T04:31:11.985Z,25.87
2018-11-26T04:33:39.981Z,25.57
2018-11-26T04:36:07.989Z,23.63
2018-11-26T04:38:35.990Z,29.97
2018-11-26T04:41:03.985Z,20.83
2018-11-26T04:43:31.986Z,23.37
2018-11-26T04:46:00.025Z,27.57
2018-11-26T04:48:28.106Z,27.67
2018-11-26T04:50:56.119Z,30.63
2018-11-26T04:53:24.121Z,32.40
2018-11-26T04:55:52.149Z,27.37
2018-11-26T04:58:20.161Z,32.70
2018-11-26T05:00:48.151Z,25.97
2018-11-26T05:03:16.199Z,29.57
2018-11-26T05:05:44.213Z,31.70
2018-11-26T05:08:12.205Z,28.47
2018-11-26T05:10:40.216Z,38.40
2018-11-26T05:13:08.223Z,30.60
2018-11-26T05:15:36.241Z,31.90
2018-11-26T05:18:04.432Z,32.80
2018-11-26T05:20:32.518Z,29.77
2018-11-26T05:23:00.528Z,31.37
2018-11-26T05:25:28.526Z,37.53
2018-11-26T05:27:56.518Z,29.40
2018-11-26T05:30:24.525Z,32.63
2018-11-26T05:32:52.520Z,30.20
2018-11-26T05:35:20.517Z,33.03
2018-11-26T05:37:48.509Z,37.23
2018-11-26T05:40:16.513Z,34.73
2018-11-26T05:42:44.613Z,32.73
2018-11-26T05:45:13.981Z,33.67
2018-11-26T05:47:41.963Z,30.10
2018-11-26T05:50:11.144Z,35.13
2018-11-26T05:52:39.796Z,34.50
2018-11-26T05:55:09.773Z,34.80
2018-11-26T05:57:37.776Z,38.40
2018-11-26T06:00:11.818Z,37.00
2018-11-26T06:02:39.825Z,39.60
2018-11-26T06:05:08.182Z,32.73
2018-11-26T06:07:36.189Z,35.53
2018-11-26T06:10:04.225Z,42.27
2018-11-26T06:12:32.288Z,31.57
2018-11-26T06:15:00.306Z,35.67
2018-11-26T06:17:28.302Z,34.40
2018-11-26T06:19:56.442Z,36.20
2018-11-26T06:22:24.506Z,31.63
2018-11-26T06:24:52.496Z,38.77
2018-11-26T06:27:20.541Z,34.87
2018-11-26T06:29:48.637Z,35.33
2018-11-26T06:32:16.641Z,34.40
2018-11-26T06:34:44.640Z,35.27
2018-11-26T06:37:12.646Z,37.93
2018-11-26T06:39:40.841Z,38.53
2018-11-26T06:42:08.841Z,33.40
2018-11-26T06:44:36.834Z,27.27
2018-11-26T06:47:05.171Z,38.70
2018-11-26T06:49:33.190Z,38.83
2018-11-26T06:52:01.255Z,39.17
2018-11-26T06:54:29.254Z,37.53
2018-11-26T06:56:57.257Z,39.67
2018-11-26T06:59:25.245Z,42.30
2018-11-26T07:01:53.258Z,39.20
2018-11-26T07:04:21.281Z,40.10
2018-11-26T07:06:49.292Z,40.77
2018-11-26T07:09:17.274Z,35.47
2018-11-26T07:11:45.275Z,38.83
2018-11-26T07:14:13.263Z,38.10
2018-11-26T07:16:41.256Z,38.03
2018-11-26T07:19:09.242Z,47.50
2018-11-26T07:21:37.244Z,38.80
2018-11-26T07:24:05.442Z,42.93
2018-11-26T07:26:33.495Z,42.20
2018-11-26T07:29:01.501Z,36.07
2018-11-26T07:31:29.743Z,40.13
2018-11-26T07:33:57.747Z,43.37
2018-11-26T07:36:25.745Z,40.63
2018-11-26T07:38:53.737Z,40.23
2018-11-26T07:41:21.726Z,40.40
2018-11-26T07:43:49.714Z,40.90
2018-11-26T07:46:17.709Z,42.07
2018-11-26T07:48:45.757Z,41.43
2018-11-26T07:51:13.781Z,39.77
2018-11-26T07:53:41.814Z,34.87
2018-11-26T07:56:09.822Z,35.20
2018-11-26T07:58:37.839Z,41.60
2018-11-26T08:01:06.306Z,35.77
2018-11-26T08:03:34.594Z,41.00
2018-11-26T08:06:08.745Z,37.63
2018-11-26T08:08:30.596Z,37.33
2018-11-26T08:10:58.602Z,40.50
2018-11-26T08:13:26.600Z,40.50
2018-11-26T08:15:54.614Z,36.73
2018-11-26T08:18:22.629Z,44.63
2018-11-26T08:20:50.687Z,37.43
2018-11-26T08:23:18.691Z,34.80
2018-11-26T08:25:46.690Z,36.83
2018-11-26T08:28:14.681Z,37.57
2018-11-26T08:30:42.677Z,35.90
2018-11-26T08:33:10.669Z,38.77
2018-11-26T08:35:38.671Z,34.70
2018-11-26T08:38:07.588Z,34.23
2018-11-26T08:40:40.983Z,33.77
2018-11-26T08:43:14.585Z,36.23
2018-11-26T08:45:51.186Z,33.77
2018-11-26T08:48:24.731Z,29.40
2018-11-26T08:50:52.728Z,37.80
2018-11-26T08:53:20.760Z,41.23
2018-11-26T08:55:48.810Z,30.90
2018-11-26T08:58:16.801Z,31.10
2018-11-26T09:00:44.801Z,31.00
2018-11-26T09:03:18.311Z,31.30
2018-11-26T09:05:50.472Z,24.77
2018-11-26T09:08:18.605Z,33.90
2018-11-26T09:10:46.599Z,28.13
2018-11-26T09:13:14.609Z,34.90
2018-11-26T09:15:42.595Z,29.27
2018-11-26T09:18:10.585Z,28.63
2018-11-26T09:20:38.565Z,26.03
2018-11-26T09:23:06.851Z,29.37
2018-11-26T09:25:34.858Z,27.60
2018-11-26T09:28:02.859Z,25.60
2018-11-26T09:30:31.090Z,21.77
2018-11-26T09:32:58.944Z,22.37
2018-11-26T09:35:27.006Z,25.53
2018-11-26T09:37:55.069Z,21.33
2018-11-26T09:40:23.090Z,22.73
2018-11-26T09:42:51.070Z,21.73
2018-11-26T09:45:19.073Z,19.73
2018-11-26T09:47:47.107Z,20.17
2018-11-26T09:50:16.249Z,18.70
2018-11-26T09:52:44.232Z,20.77
2018-11-26T09:55:13.010Z,15.73
2018-11-26T09:57:41.074Z,19.87
2018-11-26T10:00:12.542Z,22.27
2018-11-26T10:02:41.076Z,17.20
2018-11-26T10:05:12.467Z,17.30
2018-11-26T10:07:40.474Z,23.17
2018-11-26T10:10:09.964Z,14.90
2018-11-26T10:12:38.305Z,14.93
2018-11-26T10:15:16.257Z,14.30
2018-11-26T10:17:44.255Z,15.83
2018-11-26T10:20:12.541Z,11.50
2018-11-26T10:22:40.925Z,15.50
2018-11-26T10:25:13.158Z,13.40
2018-11-26T10:27:41.325Z,17.50
2018-11-26T10:30:11.252Z,14.63
2018-11-26T10:32:39.510Z,17.00
2018-11-26T10:35:09.761Z,15.60
2018-11-26T10:37:37.974Z,14.00
2018-11-26T10:40:09.119Z,14.60
2018-11-26T10:42:37.139Z,17.80
2018-11-26T10:45:06.230Z,12.30
2018-11-26T10:47:34.209Z,16.43
2018-11-26T10:50:02.201Z,18.10
2018-11-26T10:52:30.285Z,16.83
2018-11-26T10:54:58.290Z,17.27
2018-11-26T10:57:26.298Z,17.40
2018-11-26T10:59:54.291Z,16.40
2018-11-26T11:02:27.646Z,17.37
2018-11-26T11:04:55.649Z,18.60
2018-11-26T11:07:23.658Z,17.93
2018-11-26T11:09:51.654Z,16.40
2018-11-26T11:12:19.657Z,18.47
2018-11-26T11:14:47.649Z,19.77
2018-11-26T11:17:15.698Z,30.00
2018-11-26T11:19:43.697Z,16.77
2018-11-26T11:22:12.543Z,18.17
2018-11-26T11:24:40.537Z,20.37
2018-11-26T11:27:08.540Z,20.83
2018-11-26T11:29:36.834Z,16.90
2018-11-26T11:32:04.569Z,15.05
2018-11-26T11:34:32.563Z,14.43
2018-11-26T11:37:00.595Z,16.23
2018-11-26T11:39:28.605Z,19.00
2018-11-26T11:41:56.595Z,15.27
2018-11-26T11:44:24.595Z,17.10
2018-11-26T11:46:52.751Z,17.10
2018-11-26T11:49:20.755Z,13.93
2018-11-26T11:51:48.763Z,16.10
2018-11-26T11:54:16.761Z,12.20
2018-11-26T11:56:44.786Z,15.83
2018-11-26T11:59:12.779Z,9.63
2018-11-26T12:01:40.779Z,14.63
2018-11-26T12:04:08.799Z,16.17
2018-11-26T12:06:36.787Z,15.30
2018-11-26T12:09:07.982Z,13.13
2018-11-26T12:11:36.083Z,15.63
2018-11-26T12:14:04.083Z,11.40
2018-11-26T12:16:32.100Z,14.70
2018-11-26T12:19:00.264Z,14.53
2018-11-26T12:21:28.262Z,12.93
2018-11-26T12:23:56.374Z,15.33
2018-11-26T12:26:24.397Z,13.43
2018-11-26T12:28:52.552Z,12.83
2018-11-26T12:31:20.618Z,14.35
2018-11-26T12:33:48.649Z,14.07
2018-11-26T12:36:16.682Z,10.13
2018-11-26T12:38:44.726Z,11.47
2018-11-26T12:41:12.731Z,13.13
2018-11-26T12:43:40.755Z,12.67
2018-11-26T12:46:08.859Z,13.20
2018-11-26T12:48:36.847Z,9.37
2018-11-26T12:51:05.183Z,7.30
2018-11-26T12:53:33.159Z,11.00
2018-11-26T12:56:01.130Z,9.30
2018-11-26T12:58:29.134Z,11.10
2018-11-26T13:00:57.125Z,11.20
2018-11-26T13:03:25.117Z,9.90
2018-11-26T13:05:53.100Z,12.70
2018-11-26T13:08:21.099Z,10.07
2018-11-26T13:10:49.143Z,15.50
2018-11-26T13:13:17.290Z,11.83
2018-11-26T13:15:45.326Z,12.27
2018-11-26T13:18:13.334Z,9.00
2018-11-26T13:20:41.350Z,12.00
2018-11-26T13:23:09.904Z,11.50
2018-11-26T13:25:41.802Z,7.93
2018-11-26T13:28:07.835Z,9.97
2018-11-26T13:30:41.359Z,9.97
2018-11-26T13:33:11.891Z,9.53
2018-11-26T13:35:39.883Z,8.23
2018-11-26T13:38:08.633Z,8.30
2018-11-26T13:40:36.633Z,11.27
2018-11-26T13:43:07.639Z,5.77
2018-11-26T13:45:37.191Z,8.03
2018-11-26T13:48:07.154Z,7.43
2018-11-26T13:50:36.871Z,7.57
2018-11-26T13:53:05.369Z,7.60
2018-11-26T13:55:33.342Z,7.47
2018-11-26T13:58:01.458Z,9.03
2018-11-26T14:00:29.440Z,11.00
2018-11-26T14:02:57.446Z,6.30
2018-11-26T14:05:25.459Z,6.60
2018-11-26T14:07:53.511Z,12.97
2018-11-26T14:10:23.667Z,10.37
2018-11-26T14:13:01.160Z,6.00
2018-11-26T14:15:29.203Z,7.97
2018-11-26T14:17:57.207Z,5.47
2018-11-26T14:20:25.252Z,7.07
2018-11-26T14:22:53.232Z,11.70
2018-11-26T14:25:21.216Z,5.40
2018-11-26T14:27:49.432Z,4.30
2018-11-26T14:30:22.671Z,5.53
2018-11-26T14:32:50.675Z,5.40
2018-11-26T14:35:18.662Z,5.53
2018-11-26T14:37:48.895Z,6.10
2018-11-26T14:40:28.915Z,5.33
2018-11-26T14:42:56.934Z,5.30
2018-11-26T14:45:24.973Z,5.40
2018-11-26T14:47:53.079Z,6.37
2018-11-26T14:50:21.059Z,5.87
2018-11-26T14:52:49.699Z,9.40
2018-11-26T14:55:20.923Z,5.80
2018-11-26T14:57:48.937Z,8.33
2018-11-26T15:00:17.995Z,7.97
2018-11-26T15:02:46.000Z,7.00
2018-11-26T15:05:14.254Z,5.80
2018-11-26T15:07:42.251Z,5.37
2018-11-26T15:10:17.078Z,6.53
2018-11-26T15:12:45.501Z,8.23
2018-11-26T15:15:18.911Z,5.23
2018-11-26T15:17:46.931Z,4.53
2018-11-26T15:20:17.075Z,6.30
2018-11-26T15:22:45.077Z,4.37
2018-11-26T15:25:14.191Z,6.97
2018-11-26T15:27:42.283Z,6.30
2018-11-26T15:30:12.432Z,6.65
2018-11-26T15:32:46.970Z,4.87
2018-11-26T15:35:16.091Z,5.87
2018-11-26T15:37:44.282Z,5.80
2018-11-26T15:40:13.235Z,10.23
2018-11-26T15:42:41.267Z,6.13
2018-11-26T15:45:40.242Z,10.13
2018-11-26T15:48:09.815Z,6.03
2018-11-26T15:50:37.835Z,4.93
2018-11-26T15:53:06.864Z,11.70
2018-11-26T15:55:34.875Z,6.97
2018-11-26T15:58:02.866Z,6.83
2018-11-26T16:00:30.865Z,10.10
2018-11-26T16:02:58.932Z,5.50
2018-11-26T16:05:30.169Z,4.73
2018-11-26T16:08:02.797Z,5.50
2018-11-26T16:10:30.798Z,8.90
2018-11-26T16:13:00.243Z,3.97
2018-11-26T16:15:29.730Z,7.00
2018-11-26T16:17:59.287Z,5.53
2018-11-26T16:20:27.930Z,8.07
2018-11-26T16:22:56.847Z,5.90
2018-11-26T16:25:25.207Z,6.00
2018-11-26T16:27:53.222Z,7.37
2018-11-26T16:30:21.219Z,8.30
2018-11-26T16:32:53.697Z,6.13
2018-11-26T16:35:28.138Z,5.90
2018-11-26T16:37:56.131Z,7.33
2018-11-26T16:40:24.135Z,6.90
2018-11-26T16:42:52.187Z,5.20
2018-11-26T16:45:21.368Z,6.70
2018-11-26T16:47:50.532Z,6.93
2018-11-26T16:50:19.644Z,8.50
2018-11-26T16:52:47.731Z,9.27
2018-11-26T16:55:16.523Z,9.13
2018-11-26T16:57:44.523Z,10.20
2018-11-26T17:00:17.403Z,6.40
2018-11-26T17:02:46.158Z,7.60
2018-11-26T17:05:16.420Z,7.83
2018-11-26T17:07:44.467Z,7.23
2018-11-26T17:10:12.550Z,9.53
2018-11-26T17:12:41.047Z,8.50
2018-11-26T17:15:11.804Z,8.47
2018-11-26T17:17:39.815Z,8.40
2018-11-26T17:20:09.587Z,9.27
2018-11-26T17:22:37.603Z,9.60
2018-11-26T17:25:07.215Z,13.17
2018-11-26T17:27:35.228Z,7.53
2018-11-26T17:30:04.686Z,8.13
2018-11-26T17:32:32.734Z,9.10
2018-11-26T17:35:00.763Z,7.90
2018-11-26T17:37:28.768Z,15.87
2018-11-26T17:39:56.787Z,10.27
2018-11-26T17:42:24.802Z,7.93
2018-11-26T17:44:52.824Z,6.90
2018-11-26T17:47:20.823Z,11.40
2018-11-26T17:49:48.845Z,6.77
2018-11-26T17:52:16.832Z,8.77
2018-11-26T17:54:44.883Z,9.50
2018-11-26T17:57:12.874Z,6.23
2018-11-26T17:59:40.914Z,11.00
2018-11-26T18:02:08.914Z,9.00
2018-11-26T18:04:36.916Z,10.07
2018-11-26T18:07:04.918Z,16.23
2018-11-26T18:09:32.999Z,8.33
2018-11-26T18:12:01.075Z,11.33
2018-11-26T18:14:29.067Z,9.57
2018-11-26T18:16:57.194Z,8.07
2018-11-26T18:19:25.249Z,9.07
2018-11-26T18:21:53.255Z,8.53
2018-11-26T18:24:21.274Z,7.87
2018-11-26T18:26:49.321Z,9.67
2018-11-26T18:29:17.365Z,9.80
2018-11-26T18:31:45.507Z,9.10
2018-11-26T18:34:13.500Z,7.40
2018-11-26T18:36:41.574Z,12.87
2018-11-26T18:39:10.419Z,8.97
2018-11-26T18:41:38.455Z,10.17
2018-11-26T18:44:06.870Z,6.93
2018-11-26T18:46:34.913Z,9.63
2018-11-26T18:49:03.000Z,8.67
2018-11-26T18:51:31.199Z,11.33
2018-11-26T18:53:59.193Z,5.73
2018-11-26T18:56:27.227Z,4.83
2018-11-26T18:58:55.282Z,5.63
2018-11-26T19:01:23.306Z,9.03
2018-11-26T19:03:51.367Z,8.20
2018-11-26T19:06:19.428Z,5.27
2018-11-26T19:08:47.424Z,10.10
2018-11-26T19:11:16.834Z,5.63
2018-11-26T19:13:50.975Z,5.80
2018-11-26T19:16:21.399Z,11.17
2018-11-26T19:18:49.411Z,6.50
2018-11-26T19:21:17.495Z,7.67
2018-11-26T19:23:45.773Z,7.67
2018-11-26T19:26:13.765Z,9.13
2018-11-26T19:28:41.757Z,6.90
2018-11-26T19:31:09.804Z,7.00
2018-11-26T19:33:37.796Z,7.63
2018-11-26T19:36:06.584Z,6.80
2018-11-26T19:38:34.633Z,12.40
2018-11-26T19:41:02.773Z,5.40
2018-11-26T19:43:30.978Z,5.97
2018-11-26T19:45:58.986Z,8.73
2018-11-26T19:48:27.015Z,7.93
2018-11-26T19:50:55.060Z,8.70
2018-11-26T19:53:23.067Z,6.83
2018-11-26T19:55:51.537Z,7.63
2018-11-26T19:58:19.170Z,10.17
2018-11-26T20:00:47.247Z,8.60
2018-11-26T20:03:19.921Z,6.20
2018-11-26T20:05:55.907Z,6.47
2018-11-26T20:08:23.900Z,6.40
2018-11-26T20:10:52.227Z,6.10
2018-11-26T20:13:20.294Z,7.17
2018-11-26T20:15:48.316Z,6.90
2018-11-26T20:18:16.368Z,6.87
2018-11-26T20:20:44.537Z,6.70
2018-11-26T20:23:12.532Z,8.00
2018-11-26T20:25:41.697Z,9.80
2018-11-26T20:28:09.778Z,5.73
2018-11-26T20:30:37.941Z,11.93
2018-11-26T20:33:06.640Z,7.87
2018-11-26T20:35:34.850Z,6.43
2018-11-26T20:38:03.971Z,6.70
2018-11-26T20:40:32.007Z,7.63
2018-11-26T20:43:00.035Z,9.13
2018-11-26T20:45:28.129Z,6.40
2018-11-26T20:47:56.242Z,9.23
2018-11-26T20:50:26.362Z,6.53
2018-11-26T20:52:54.382Z,7.50
2018-11-26T20:55:23.653Z,8.10
2018-11-26T20:57:52.720Z,6.20
2018-11-26T21:00:21.906Z,6.13
2018-11-26T21:02:51.282Z,7.17
2018-11-26T21:05:19.344Z,6.60
2018-11-26T21:07:47.369Z,10.47
2018-11-26T21:10:16.168Z,8.67
2018-11-26T21:12:44.206Z,8.03
2018-11-26T21:15:13.567Z,11.00
2018-11-26T21:17:42.365Z,7.80
2018-11-26T21:20:15.220Z,8.30
2018-11-26T21:22:43.226Z,8.10
2018-11-26T21:25:13.937Z,8.00
2018-11-26T21:27:41.945Z,8.57
2018-11-26T21:30:16.933Z,12.37
2018-11-26T21:32:45.041Z,8.63
2018-11-26T21:35:15.210Z,11.20
2018-11-26T21:37:44.522Z,7.60
2018-11-26T21:40:13.623Z,7.53
2018-11-26T21:42:42.956Z,8.40
2018-11-26T21:45:13.499Z,11.00
2018-11-26T21:47:41.510Z,6.30
2018-11-26T21:50:11.093Z,7.87
2018-11-26T21:52:39.223Z,7.53
2018-11-26T21:55:15.911Z,6.97
2018-11-26T21:57:43.973Z,10.30
2018-11-26T22:00:21.088Z,7.83
2018-11-26T22:02:49.279Z,8.00
2018-11-26T22:05:17.288Z,8.73
2018-11-26T22:07:45.291Z,7.53
2018-11-26T22:10:14.403Z,7.67
2018-11-26T22:12:43.323Z,5.27
2018-11-26T22:15:12.527Z,12.27
2018-11-26T22:17:40.758Z,7.73
2018-11-26T22:20:11.427Z,7.03
2018-11-26T22:22:39.451Z,6.93
2018-11-26T22:25:08.839Z,8.70
2018-11-26T22:27:36.968Z,9.30
2018-11-26T22:30:09.230Z,10.67
2018-11-26T22:32:37.225Z,7.00
2018-11-26T22:35:05.767Z,7.07
2018-11-26T22:37:33.792Z,10.40
2018-11-26T22:40:01.862Z,10.07
2018-11-26T22:42:29.879Z,9.13
2018-11-26T22:44:58.112Z,7.23
2018-11-26T22:47:26.131Z,7.57
2018-11-26T22:49:54.218Z,14.00
2018-11-26T22:52:22.207Z,9.80
2018-11-26T22:54:51.231Z,10.40
2018-11-26T22:57:19.223Z,16.17
2018-11-26T22:59:47.274Z,6.90
2018-11-26T23:02:15.275Z,10.93
2018-11-26T23:04:43.402Z,9.13
2018-11-26T23:07:11.425Z,9.80
2018-11-26T23:09:40.565Z,12.33
2018-11-26T23:12:08.575Z,9.50
2018-11-26T23:14:36.588Z,11.27
2018-11-26T23:17:04.596Z,15.33
2018-11-26T23:19:32.640Z,10.73
2018-11-26T23:22:00.622Z,9.90
2018-11-26T23:24:28.682Z,10.07
2018-11-26T23:26:56.731Z,10.80
2018-11-26T23:29:24.723Z,14.23
2018-11-26T23:31:52.785Z,16.03
2018-11-26T23:34:20.775Z,11.40
2018-11-26T23:36:48.776Z,13.37
2018-11-26T23:39:16.876Z,13.43
2018-11-26T23:41:44.917Z,12.07
2018-11-26T23:44:12.895Z,10.40
2018-11-26T23:46:40.955Z,12.67
2018-11-26T23:49:08.963Z,13.93
2018-11-26T23:51:36.963Z,14.27
2018-11-26T23:54:05.037Z,11.40
2018-11-26T23:56:33.042Z,12.70
2018-11-26T23:59:01.134Z,13.27
